sensor_id;sensor_type;location;lat;lon;timestamp;pressure;altitude;pressure_sealevel;temperature;humidity
48035;BME280;33812;46.480;6.834;2023-02-20T00:02:23;94740.06;;;22.51;32.84
48035;BME280;33812;46.480;6.834;2023-02-20T00:06:25;94741.28;;;22.50;33.05
48035;BME280;33812;46.480;6.834;2023-02-20T00:10:38;94736.53;;;22.50;32.86
48035;BME280;33812;46.480;6.834;2023-02-20T00:14:50;94738.50;;;22.50;32.83
48035;BME280;33812;46.480;6.834;2023-02-20T00:18:52;94738.50;;;22.50;32.82
48035;BME280;33812;46.480;6.834;2023-02-20T00:22:55;94732.16;;;22.49;33.04
48035;BME280;33812;46.480;6.834;2023-02-20T00:26:58;94735.72;;;22.50;33.07
48035;BME280;33812;46.480;6.834;2023-02-20T00:31:14;94735.38;;;22.48;32.76
48035;BME280;33812;46.480;6.834;2023-02-20T00:35:27;94732.16;;;22.49;32.91
48035;BME280;33812;46.480;6.834;2023-02-20T00:39:30;94733.38;;;22.48;32.65
48035;BME280;33812;46.480;6.834;2023-02-20T00:43:35;94728.22;;;22.50;32.84
48035;BME280;33812;46.480;6.834;2023-02-20T00:47:42;94736.91;;;22.49;32.67
48035;BME280;33812;46.480;6.834;2023-02-20T00:51:48;94748.00;;;22.49;32.62
48035;BME280;33812;46.480;6.834;2023-02-20T00:55:50;94747.22;;;22.48;32.74
48035;BME280;33812;46.480;6.834;2023-02-20T00:59:56;94751.97;;;22.48;32.57
48035;BME280;33812;46.480;6.834;2023-02-20T01:03:58;94757.53;;;22.48;32.88
48035;BME280;33812;46.480;6.834;2023-02-20T01:08:01;94753.97;;;22.47;32.78
48035;BME280;33812;46.480;6.834;2023-02-20T01:12:03;94757.94;;;22.46;32.82
48035;BME280;33812;46.480;6.834;2023-02-20T01:16:07;94751.25;;;22.43;32.73
48035;BME280;33812;46.480;6.834;2023-02-20T01:20:09;94761.16;;;22.44;32.54
48035;BME280;33812;46.480;6.834;2023-02-20T01:24:11;94759.50;;;22.47;32.57
48035;BME280;33812;46.480;6.834;2023-02-20T01:28:13;94762.41;;;22.40;32.38
48035;BME280;33812;46.480;6.834;2023-02-20T01:32:17;94763.91;;;22.44;32.46
48035;BME280;33812;46.480;6.834;2023-02-20T01:36:19;94765.09;;;22.43;32.53
48035;BME280;33812;46.480;6.834;2023-02-20T01:40:23;94764.72;;;22.45;32.65
48035;BME280;33812;46.480;6.834;2023-02-20T01:44:29;94765.91;;;22.44;32.93
48035;BME280;33812;46.480;6.834;2023-02-20T01:48:46;94771.06;;;22.42;32.79
48035;BME280;33812;46.480;6.834;2023-02-20T01:52:53;94764.34;;;22.43;32.75
48035;BME280;33812;46.480;6.834;2023-02-20T01:56:59;94771.06;;;22.42;32.84
48035;BME280;33812;46.480;6.834;2023-02-20T02:01:04;94764.78;;;22.41;32.68
48035;BME280;33812;46.480;6.834;2023-02-20T02:05:09;94773.50;;;22.40;32.66
48035;BME280;33812;46.480;6.834;2023-02-20T02:09:18;94763.97;;;22.41;32.68
48035;BME280;33812;46.480;6.834;2023-02-20T02:13:22;94761.22;;;22.41;32.53
48035;BME280;33812;46.480;6.834;2023-02-20T02:17:50;94765.97;;;22.40;32.53
48035;BME280;33812;46.480;6.834;2023-02-20T02:22:32;94767.16;;;22.39;32.50
48035;BME280;33812;46.480;6.834;2023-02-20T02:27:00;94753.75;;;22.38;32.49
48035;BME280;33812;46.480;6.834;2023-02-20T02:31:25;94755.72;;;22.37;32.52
48035;BME280;33812;46.480;6.834;2023-02-20T02:40:19;94748.63;;;22.36;32.51
48035;BME280;33812;46.480;6.834;2023-02-20T02:44:30;94749.81;;;22.35;32.51
48035;BME280;33812;46.480;6.834;2023-02-20T02:48:38;94745.88;;;22.36;32.36
48035;BME280;33812;46.480;6.834;2023-02-20T02:52:43;94739.53;;;22.36;32.43
48035;BME280;33812;46.480;6.834;2023-02-20T02:57:18;94745.88;;;22.36;32.48
48035;BME280;33812;46.480;6.834;2023-02-20T03:01:21;94741.94;;;22.33;32.33
48035;BME280;33812;46.480;6.834;2023-02-20T03:05:27;94739.16;;;22.33;32.41
48035;BME280;33812;46.480;6.834;2023-02-20T03:09:43;94743.16;;;22.32;32.43
48035;BME280;33812;46.480;6.834;2023-02-20T03:13:58;94732.44;;;22.34;32.43
48035;BME280;33812;46.480;6.834;2023-02-20T03:18:28;94727.72;;;22.31;32.28
48035;BME280;33812;46.480;6.834;2023-02-20T03:22:37;94728.53;;;22.32;32.43
48035;BME280;33812;46.480;6.834;2023-02-20T03:26:47;94732.09;;;22.32;32.12
48035;BME280;33812;46.480;6.834;2023-02-20T03:30:55;94716.66;;;22.31;32.19
48035;BME280;33812;46.480;6.834;2023-02-20T03:35:13;94717.88;;;22.30;32.16
48035;BME280;33812;46.480;6.834;2023-02-20T03:39:39;94709.56;;;22.30;32.23
48035;BME280;33812;46.480;6.834;2023-02-20T03:48:38;94697.69;;;22.30;32.20
48035;BME280;33812;46.480;6.834;2023-02-20T03:52:51;94701.69;;;22.29;32.08
48035;BME280;33812;46.480;6.834;2023-02-20T03:56:57;94699.28;;;22.31;32.08
48035;BME280;33812;46.480;6.834;2023-02-20T04:01:16;94691.78;;;22.28;32.09
48035;BME280;33812;46.480;6.834;2023-02-20T04:05:26;94693.81;;;22.27;31.97
48035;BME280;33812;46.480;6.834;2023-02-20T04:09:33;94681.94;;;22.27;31.97
48035;BME280;33812;46.480;6.834;2023-02-20T04:13:49;94684.69;;;22.27;31.88
48035;BME280;33812;46.480;6.834;2023-02-20T04:18:08;94689.88;;;22.25;31.98
48035;BME280;33812;46.480;6.834;2023-02-20T04:22:18;94687.09;;;22.25;31.93
48035;BME280;33812;46.480;6.834;2023-02-20T04:26:22;94685.56;;;22.24;32.08
48035;BME280;33812;46.480;6.834;2023-02-20T04:30:23;94681.19;;;22.22;31.98
48035;BME280;33812;46.480;6.834;2023-02-20T04:34:26;94683.53;;;22.24;32.01
48035;BME280;33812;46.480;6.834;2023-02-20T04:38:30;94678.44;;;22.22;31.95
48035;BME280;33812;46.480;6.834;2023-02-20T04:42:34;94680.00;;;22.24;31.75
48035;BME280;33812;46.480;6.834;2023-02-20T04:46:37;94684.34;;;22.25;31.93
48035;BME280;33812;46.480;6.834;2023-02-20T04:50:39;94684.34;;;22.25;31.81
48035;BME280;33812;46.480;6.834;2023-02-20T04:54:43;94680.44;;;22.22;31.88
48035;BME280;33812;46.480;6.834;2023-02-20T04:58:45;94683.63;;;22.20;31.96
48035;BME280;33812;46.480;6.834;2023-02-20T05:02:56;94689.19;;;22.20;31.83
48035;BME280;33812;46.480;6.834;2023-02-20T05:06:59;94686.81;;;22.19;31.75
48035;BME280;33812;46.480;6.834;2023-02-20T05:11:04;94691.56;;;22.18;31.69
48035;BME280;33812;46.480;6.834;2023-02-20T05:15:07;94690.00;;;22.17;31.65
48035;BME280;33812;46.480;6.834;2023-02-20T05:19:13;94677.38;;;22.16;31.63
48035;BME280;33812;46.480;6.834;2023-02-20T05:23:14;94690.78;;;22.18;31.83
48035;BME280;33812;46.480;6.834;2023-02-20T05:27:20;94689.22;;;22.17;31.70
48035;BME280;33812;46.480;6.834;2023-02-20T05:31:23;94689.66;;;22.15;31.67
48035;BME280;33812;46.480;6.834;2023-02-20T05:35:25;94691.56;;;22.18;31.55
48035;BME280;33812;46.480;6.834;2023-02-20T05:39:29;94694.41;;;22.15;31.63
48035;BME280;33812;46.480;6.834;2023-02-20T05:43:34;94690.00;;;22.17;31.56
48035;BME280;33812;46.480;6.834;2023-02-20T05:47:37;94692.81;;;22.14;31.58
48035;BME280;33812;46.480;6.834;2023-02-20T05:51:40;94682.91;;;22.16;31.62
48035;BME280;33812;46.480;6.834;2023-02-20T05:55:43;94690.16;;;22.10;31.82
48035;BME280;33812;46.480;6.834;2023-02-20T05:59:57;94686.94;;;22.12;31.22
48035;BME280;33812;46.480;6.834;2023-02-20T06:03:59;94694.53;;;22.07;31.01
48035;BME280;33812;46.480;6.834;2023-02-20T06:08:11;94691.81;;;22.04;31.00
48035;BME280;33812;46.480;6.834;2023-02-20T06:12:17;94699.63;;;22.09;30.97
48035;BME280;33812;46.480;6.834;2023-02-20T06:16:23;94695.69;;;22.10;31.80
48035;BME280;33812;46.480;6.834;2023-02-20T06:20:26;94693.25;;;22.12;31.79
48035;BME280;33812;46.480;6.834;2023-02-20T06:24:28;94691.34;;;22.09;32.09
48035;BME280;33812;46.480;6.834;2023-02-20T06:28:30;94686.59;;;22.09;32.19
48035;BME280;33812;46.480;6.834;2023-02-20T06:32:53;94686.94;;;22.12;32.58
48035;BME280;33812;46.480;6.834;2023-02-20T06:36:55;94691.69;;;22.11;32.61
48035;BME280;33812;46.480;6.834;2023-02-20T06:40:56;94686.16;;;22.11;32.81
48035;BME280;33812;46.480;6.834;2023-02-20T06:44:58;94678.34;;;22.06;32.45
48035;BME280;33812;46.480;6.834;2023-02-20T06:49:03;94679.91;;;22.07;32.40
48035;BME280;33812;46.480;6.834;2023-02-20T06:53:05;94680.31;;;22.05;32.47
48035;BME280;33812;46.480;6.834;2023-02-20T06:57:13;94677.56;;;22.05;32.39
48035;BME280;33812;46.480;6.834;2023-02-20T07:01:20;94673.16;;;22.08;32.46
48035;BME280;33812;46.480;6.834;2023-02-20T07:05:26;94660.56;;;22.03;32.55
48035;BME280;33812;46.480;6.834;2023-02-20T07:09:30;94667.28;;;22.06;32.63
48035;BME280;33812;46.480;6.834;2023-02-20T07:13:34;94667.63;;;22.08;32.71
48035;BME280;33812;46.480;6.834;2023-02-20T07:17:37;94673.94;;;22.08;32.74
48035;BME280;33812;46.480;6.834;2023-02-20T07:21:40;94685.44;;;22.07;32.85
48035;BME280;33812;46.480;6.834;2023-02-20T07:25:42;94685.50;;;22.03;32.79
48035;BME280;33812;46.480;6.834;2023-02-20T07:29:50;94682.28;;;22.05;32.83
48035;BME280;33812;46.480;6.834;2023-02-20T07:33:52;94680.75;;;22.04;32.56
48035;BME280;33812;46.480;6.834;2023-02-20T07:37:59;94682.72;;;22.03;32.29
48035;BME280;33812;46.480;6.834;2023-02-20T07:42:01;94680.75;;;22.04;32.71
48035;BME280;33812;46.480;6.834;2023-02-20T07:46:04;94679.91;;;22.07;32.78
48035;BME280;33812;46.480;6.834;2023-02-20T07:50:07;94675.94;;;22.08;32.56
48035;BME280;33812;46.480;6.834;2023-02-20T07:54:10;94668.81;;;22.07;32.38
48035;BME280;33812;46.480;6.834;2023-02-20T07:58:14;94673.16;;;22.08;32.42
48035;BME280;33812;46.480;6.834;2023-02-20T08:02:16;94668.00;;;22.10;32.15
48035;BME280;33812;46.480;6.834;2023-02-20T08:06:18;94668.81;;;22.07;32.05
48035;BME280;33812;46.480;6.834;2023-02-20T08:10:25;94660.53;;;22.07;31.84
48035;BME280;33812;46.480;6.834;2023-02-20T08:14:26;94665.22;;;22.10;31.66
48035;BME280;33812;46.480;6.834;2023-02-20T08:18:29;94650.59;;;22.09;32.08
48035;BME280;33812;46.480;6.834;2023-02-20T08:22:34;94650.59;;;22.09;31.92
48035;BME280;33812;46.480;6.834;2023-02-20T08:26:46;94639.22;;;22.04;32.01
48035;BME280;33812;46.480;6.834;2023-02-20T08:30:48;94647.41;;;22.11;32.05
48035;BME280;33812;46.480;6.834;2023-02-20T08:34:54;94641.94;;;22.07;31.89
48035;BME280;33812;46.480;6.834;2023-02-20T08:38:56;94642.34;;;22.06;31.37
48035;BME280;33812;46.480;6.834;2023-02-20T08:43:00;94641.13;;;22.07;31.98
48035;BME280;33812;46.480;6.834;2023-02-20T08:47:02;94649.81;;;22.09;31.74
48035;BME280;33812;46.480;6.834;2023-02-20T08:51:05;94656.94;;;22.10;32.10
48035;BME280;33812;46.480;6.834;2023-02-20T08:55:07;94655.34;;;22.09;32.23
48035;BME280;33812;46.480;6.834;2023-02-20T08:59:12;94654.56;;;22.08;32.45
48035;BME280;33812;46.480;6.834;2023-02-20T09:03:14;94659.69;;;22.10;32.58
48035;BME280;33812;46.480;6.834;2023-02-20T09:07:16;94662.81;;;22.12;32.72
48035;BME280;33812;46.480;6.834;2023-02-20T09:11:31;94648.19;;;22.12;32.95
48035;BME280;33812;46.480;6.834;2023-02-20T09:15:34;94656.06;;;22.13;32.88
48035;BME280;33812;46.480;6.834;2023-02-20T09:19:44;94647.41;;;22.11;32.76
48035;BME280;33812;46.480;6.834;2023-02-20T09:23:47;94651.31;;;22.14;33.18
48035;BME280;33812;46.480;6.834;2023-02-20T09:27:57;94639.81;;;22.15;33.31
48035;BME280;33812;46.480;6.834;2023-02-20T09:32:10;94642.59;;;22.15;32.64
48035;BME280;33812;46.480;6.834;2023-02-20T09:36:23;94637.88;;;22.12;32.58
48035;BME280;33812;46.480;6.834;2023-02-20T09:40:27;94644.16;;;22.16;32.22
48035;BME280;33812;46.480;6.834;2023-02-20T09:44:37;94639.47;;;22.13;32.57
48035;BME280;33812;46.480;6.834;2023-02-20T09:49:03;94649.25;;;22.18;32.49
48035;BME280;33812;46.480;6.834;2023-02-20T09:53:19;94638.56;;;22.20;32.53
48035;BME280;33812;46.480;6.834;2023-02-20T09:57:34;94634.19;;;22.19;32.63
48035;BME280;33812;46.480;6.834;2023-02-20T10:01:40;94645.63;;;22.21;32.43
48035;BME280;33812;46.480;6.834;2023-02-20T10:05:45;94635.78;;;22.20;32.74
48035;BME280;33812;46.480;6.834;2023-02-20T10:09:47;94623.50;;;22.21;32.74
48035;BME280;33812;46.480;6.834;2023-02-20T10:13:55;94628.25;;;22.20;32.51
48035;BME280;33812;46.480;6.834;2023-02-20T10:18:04;94632.59;;;22.21;32.29
48035;BME280;33812;46.480;6.834;2023-02-20T10:22:13;94628.16;;;22.24;32.70
48035;BME280;33812;46.480;6.834;2023-02-20T10:26:20;94633.72;;;22.24;32.65
48035;BME280;33812;46.480;6.834;2023-02-20T10:30:26;94625.81;;;22.22;32.88
48035;BME280;33812;46.480;6.834;2023-02-20T10:34:35;94631.72;;;22.25;33.05
48035;BME280;33812;46.480;6.834;2023-02-20T10:38:45;94628.53;;;22.26;32.80
48035;BME280;33812;46.480;6.834;2023-02-20T10:43:01;94609.22;;;22.22;32.74
48035;BME280;33812;46.480;6.834;2023-02-20T10:47:27;94613.94;;;22.26;33.00
48035;BME280;33812;46.480;6.834;2023-02-20T10:51:33;94614.63;;;22.30;33.03
48035;BME280;33812;46.480;6.834;2023-02-20T10:55:42;94598.06;;;22.26;32.88
48035;BME280;33812;46.480;6.834;2023-02-20T10:59:52;94599.66;;;22.27;32.73
48035;BME280;33812;46.480;6.834;2023-02-20T11:04:02;94597.66;;;22.28;32.81
48035;BME280;33812;46.480;6.834;2023-02-20T11:08:05;94585.81;;;22.27;32.82
48035;BME280;33812;46.480;6.834;2023-02-20T11:12:20;94586.94;;;22.30;33.09
48035;BME280;33812;46.480;6.834;2023-02-20T11:16:26;94578.63;;;22.30;32.89
48035;BME280;33812;46.480;6.834;2023-02-20T11:20:42;94573.44;;;22.32;33.38
48035;BME280;33812;46.480;6.834;2023-02-20T11:24:47;94569.47;;;22.33;33.30
48035;BME280;33812;46.480;6.834;2023-02-20T11:28:58;94570.25;;;22.33;33.44
48035;BME280;33812;46.480;6.834;2023-02-20T11:33:03;94568.25;;;22.34;33.51
48035;BME280;33812;46.480;6.834;2023-02-20T11:37:06;94555.97;;;22.35;33.36
48035;BME280;33812;46.480;6.834;2023-02-20T11:41:27;94554.00;;;22.36;33.49
48035;BME280;33812;46.480;6.834;2023-02-20T11:45:36;94555.97;;;22.35;33.42
48035;BME280;33812;46.480;6.834;2023-02-20T11:49:40;94548.03;;;22.37;33.35
48035;BME280;33812;46.480;6.834;2023-02-20T11:53:43;94538.16;;;22.36;33.67
48035;BME280;33812;46.480;6.834;2023-02-20T11:57:47;94534.53;;;22.39;33.66
48035;BME280;33812;46.480;6.834;2023-02-20T12:01:51;94531.41;;;22.37;33.58
48035;BME280;33812;46.480;6.834;2023-02-20T12:05:54;94520.31;;;22.37;33.47
48035;BME280;33812;46.480;6.834;2023-02-20T12:10:00;94517.91;;;22.39;33.60
48035;BME280;33812;46.480;6.834;2023-02-20T12:14:09;94504.50;;;22.38;33.81
48035;BME280;33812;46.480;6.834;2023-02-20T12:18:31;94498.53;;;22.39;33.63
48035;BME280;33812;46.480;6.834;2023-02-20T12:22:38;94493.41;;;22.38;33.62
48035;BME280;33812;46.480;6.834;2023-02-20T12:26:50;94484.25;;;22.41;33.52
48035;BME280;33812;46.480;6.834;2023-02-20T12:31:04;94479.50;;;22.41;33.83
48035;BME280;33812;46.480;6.834;2023-02-20T12:35:33;94479.81;;;22.43;33.38
48035;BME280;33812;46.480;6.834;2023-02-20T12:39:41;94462.38;;;22.46;33.81
48035;BME280;33812;46.480;6.834;2023-02-20T12:43:50;94461.81;;;22.35;32.67
48035;BME280;33812;46.480;6.834;2023-02-20T12:48:08;94459.63;;;22.26;30.61
48035;BME280;33812;46.480;6.834;2023-02-20T12:52:44;94448.13;;;22.28;31.89
48035;BME280;33812;46.480;6.834;2023-02-20T12:57:01;94450.22;;;22.24;30.58
48035;BME280;33812;46.480;6.834;2023-02-20T13:01:10;94450.88;;;22.28;31.38
48035;BME280;33812;46.480;6.834;2023-02-20T13:05:17;94446.72;;;22.19;30.84
48035;BME280;33812;46.480;6.834;2023-02-20T13:09:24;94442.84;;;22.17;29.58
48035;BME280;33812;46.480;6.834;2023-02-20T13:13:34;94434.19;;;22.15;29.09
48035;BME280;33812;46.480;6.834;2023-02-20T13:17:41;94443.94;;;22.19;29.52
48035;BME280;33812;46.480;6.834;2023-02-20T13:21:50;94438.41;;;22.19;29.84
48035;BME280;33812;46.480;6.834;2023-02-20T13:25:55;94432.09;;;22.19;30.16
48035;BME280;33812;46.480;6.834;2023-02-20T13:29:57;94429.44;;;22.15;29.76
48035;BME280;33812;46.480;6.834;2023-02-20T13:34:32;94427.34;;;22.19;30.25
48035;BME280;33812;46.480;6.834;2023-02-20T13:38:34;94427.34;;;22.19;30.13
48035;BME280;33812;46.480;6.834;2023-02-20T13:42:37;94418.69;;;22.17;30.12
48035;BME280;33812;46.480;6.834;2023-02-20T13:46:57;94409.34;;;22.11;29.50
48035;BME280;33812;46.480;6.834;2023-02-20T13:55:45;94404.84;;;22.17;29.72
48035;BME280;33812;46.480;6.834;2023-02-20T13:59:50;94391.72;;;22.21;29.90
48035;BME280;33812;46.480;6.834;2023-02-20T14:03:59;94389.72;;;22.22;29.60
48035;BME280;33812;46.480;6.834;2023-02-20T14:08:01;94386.53;;;22.24;29.75
48035;BME280;33812;46.480;6.834;2023-02-20T14:12:07;94377.88;;;22.21;29.97
48035;BME280;33812;46.480;6.834;2023-02-20T14:16:31;94379.75;;;22.25;30.39
48035;BME280;33812;46.480;6.834;2023-02-20T14:20:35;94373.56;;;22.20;29.81
48035;BME280;33812;46.480;6.834;2023-02-20T14:24:37;94366.72;;;22.25;30.09
48035;BME280;33812;46.480;6.834;2023-02-20T14:28:43;94370.28;;;22.26;29.65
48035;BME280;33812;46.480;6.834;2023-02-20T14:32:48;94366.97;;;22.31;29.83
48035;BME280;33812;46.480;6.834;2023-02-20T14:37:00;94355.03;;;22.34;30.13
48035;BME280;33812;46.480;6.834;2023-02-20T14:41:11;94351.41;;;22.37;29.75
48035;BME280;33812;46.480;6.834;2023-02-20T14:45:18;94343.97;;;22.34;29.49
48035;BME280;33812;46.480;6.834;2023-02-20T14:49:27;94336.00;;;22.36;29.69
48035;BME280;33812;46.480;6.834;2023-02-20T14:53:30;94346.22;;;22.39;29.98
48035;BME280;33812;46.480;6.834;2023-02-20T14:57:32;94329.50;;;22.43;30.19
48035;BME280;33812;46.480;6.834;2023-02-20T15:01:35;94325.97;;;22.42;30.04
48035;BME280;33812;46.480;6.834;2023-02-20T15:05:41;94320.41;;;22.42;30.30
48035;BME280;33812;46.480;6.834;2023-02-20T15:09:45;94331.06;;;22.44;30.26
48035;BME280;33812;46.480;6.834;2023-02-20T15:13:47;94318.00;;;22.44;30.27
48035;BME280;33812;46.480;6.834;2023-02-20T15:18:04;94316.78;;;22.45;30.16
48035;BME280;33812;46.480;6.834;2023-02-20T15:22:25;94318.00;;;22.44;30.45
48035;BME280;33812;46.480;6.834;2023-02-20T15:26:29;94323.09;;;22.46;30.29
48035;BME280;33812;46.480;6.834;2023-02-20T15:30:33;94319.19;;;22.43;30.04
48035;BME280;33812;46.480;6.834;2023-02-20T15:34:36;94318.00;;;22.44;30.16
48035;BME280;33812;46.480;6.834;2023-02-20T15:38:40;94320.34;;;22.46;30.28
48035;BME280;33812;46.480;6.834;2023-02-20T15:42:42;94313.56;;;22.47;30.36
48035;BME280;33812;46.480;6.834;2023-02-20T15:46:43;94317.13;;;22.48;30.47
48035;BME280;33812;46.480;6.834;2023-02-20T15:50:46;94315.16;;;22.48;30.42
48035;BME280;33812;46.480;6.834;2023-02-20T15:54:51;94313.56;;;22.47;30.40
48035;BME280;33812;46.480;6.834;2023-02-20T15:59:05;94311.59;;;22.48;30.72
48035;BME280;33812;46.480;6.834;2023-02-20T16:03:08;94316.34;;;22.47;30.94
48035;BME280;33812;46.480;6.834;2023-02-20T16:07:10;94318.00;;;22.44;30.72
48035;BME280;33812;46.480;6.834;2023-02-20T16:11:18;94313.66;;;22.43;31.10
48035;BME280;33812;46.480;6.834;2023-02-20T16:15:21;94315.56;;;22.46;30.89
48035;BME280;33812;46.480;6.834;2023-02-20T16:19:24;94322.22;;;22.49;31.21
48035;BME280;33812;46.480;6.834;2023-02-20T16:23:27;94330.97;;;22.48;30.98
48035;BME280;33812;46.480;6.834;2023-02-20T16:27:32;94325.88;;;22.46;31.17
48035;BME280;33812;46.480;6.834;2023-02-20T16:32:12;94320.25;;;22.50;31.37
48035;BME280;33812;46.480;6.834;2023-02-20T16:36:18;94320.34;;;22.46;31.04
48035;BME280;33812;46.480;6.834;2023-02-20T16:40:25;94316.00;;;22.45;30.99
48035;BME280;33812;46.480;6.834;2023-02-20T16:44:33;94312.81;;;22.46;31.30
48035;BME280;33812;46.480;6.834;2023-02-20T16:48:36;94316.69;;;22.49;31.66
48035;BME280;33812;46.480;6.834;2023-02-20T16:52:39;94321.13;;;22.46;31.78
48035;BME280;33812;46.480;6.834;2023-02-20T16:56:41;94315.56;;;22.46;31.44
48035;BME280;33812;46.480;6.834;2023-02-20T17:00:45;94316.78;;;22.45;31.51
48035;BME280;33812;46.480;6.834;2023-02-20T17:04:47;94317.13;;;22.48;31.42
48035;BME280;33812;46.480;6.834;2023-02-20T17:08:49;94312.03;;;22.46;31.42
48035;BME280;33812;46.480;6.834;2023-02-20T17:12:51;94316.00;;;22.45;31.48
48035;BME280;33812;46.480;6.834;2023-02-20T17:16:54;94316.00;;;22.45;31.37
48035;BME280;33812;46.480;6.834;2023-02-20T17:20:56;94323.19;;;22.42;31.26
48035;BME280;33812;46.480;6.834;2023-02-20T17:24:57;94316.94;;;22.38;31.31
48035;BME280;33812;46.480;6.834;2023-02-20T17:28:59;94318.59;;;22.36;31.15
48035;BME280;33812;46.480;6.834;2023-02-20T17:33:02;94313.59;;;22.30;31.15
48035;BME280;33812;46.480;6.834;2023-02-20T17:37:05;94321.81;;;22.34;31.13
48035;BME280;33812;46.480;6.834;2023-02-20T17:41:07;94309.06;;;22.37;31.12
48035;BME280;33812;46.480;6.834;2023-02-20T17:45:09;94321.03;;;22.33;31.08
48035;BME280;33812;46.480;6.834;2023-02-20T17:49:12;94325.97;;;22.26;30.90
48035;BME280;33812;46.480;6.834;2023-02-20T17:53:15;94328.72;;;22.26;30.75
48035;BME280;33812;46.480;6.834;2023-02-20T17:57:18;94325.09;;;22.29;31.16
48035;BME280;33812;46.480;6.834;2023-02-20T18:01:20;94335.06;;;22.43;31.14
48035;BME280;33812;46.480;6.834;2023-02-20T18:05:28;94329.34;;;22.50;31.91
48035;BME280;33812;46.480;6.834;2023-02-20T18:09:30;94332.34;;;22.56;32.08
48035;BME280;33812;46.480;6.834;2023-02-20T18:13:33;94331.50;;;22.59;32.52
48035;BME280;33812;46.480;6.834;2023-02-20T18:17:36;94331.50;;;22.59;32.68
48035;BME280;33812;46.480;6.834;2023-02-20T18:21:41;94327.09;;;22.62;33.03
48035;BME280;33812;46.480;6.834;2023-02-20T18:25:48;94332.19;;;22.63;32.93
48035;BME280;33812;46.480;6.834;2023-02-20T18:29:51;94327.00;;;22.65;33.31
48035;BME280;33812;46.480;6.834;2023-02-20T18:33:53;94322.34;;;22.62;33.31
48035;BME280;33812;46.480;6.834;2023-02-20T18:37:59;94322.56;;;22.68;33.65
48035;BME280;33812;46.480;6.834;2023-02-20T18:42:02;94322.56;;;22.68;33.75
48035;BME280;33812;46.480;6.834;2023-02-20T18:46:04;94323.00;;;22.66;33.87
48035;BME280;33812;46.480;6.834;2023-02-20T18:50:07;94313.13;;;22.49;30.88
48035;BME280;33812;46.480;6.834;2023-02-20T18:54:16;94314.75;;;21.59;29.91
48035;BME280;33812;46.480;6.834;2023-02-20T18:58:18;94314.59;;;21.66;30.32
48035;BME280;33812;46.480;6.834;2023-02-20T19:02:21;94310.97;;;22.23;31.26
48035;BME280;33812;46.480;6.834;2023-02-20T19:06:25;94301.47;;;22.41;32.42
48035;BME280;33812;46.480;6.834;2023-02-20T19:10:31;94300.06;;;22.49;32.75
48035;BME280;33812;46.480;6.834;2023-02-20T19:14:43;94306.22;;;22.57;33.04
48035;BME280;33812;46.480;6.834;2023-02-20T19:18:45;94306.13;;;22.61;33.79
48035;BME280;33812;46.480;6.834;2023-02-20T19:22:49;94301.03;;;22.59;34.12
48035;BME280;33812;46.480;6.834;2023-02-20T19:26:57;94313.16;;;22.65;34.36
48035;BME280;33812;46.480;6.834;2023-02-20T19:31:02;94296.69;;;22.58;35.08
48035;BME280;33812;46.480;6.834;2023-02-20T19:35:06;94304.06;;;22.65;34.98
48035;BME280;33812;46.480;6.834;2023-02-20T19:39:09;94303.00;;;21.14;30.33
48035;BME280;33812;46.480;6.834;2023-02-20T19:43:16;94311.28;;;20.94;31.03
48035;BME280;33812;46.480;6.834;2023-02-20T19:47:18;94302.72;;;21.86;31.32
48035;BME280;33812;46.480;6.834;2023-02-20T19:51:20;94305.19;;;22.17;30.91
48035;BME280;33812;46.480;6.834;2023-02-20T19:55:25;94302.50;;;22.30;30.95
48035;BME280;33812;46.480;6.834;2023-02-20T19:59:30;94298.00;;;22.37;31.26
48035;BME280;33812;46.480;6.834;2023-02-20T20:03:32;94301.03;;;22.42;31.71
48035;BME280;33812;46.480;6.834;2023-02-20T20:07:34;94294.25;;;22.43;32.30
48035;BME280;33812;46.480;6.834;2023-02-20T20:11:36;94290.97;;;22.49;32.90
48035;BME280;33812;46.480;6.834;2023-02-20T20:15:39;94291.31;;;22.51;33.14
48035;BME280;33812;46.480;6.834;2023-02-20T20:19:43;94293.22;;;22.54;33.56
48035;BME280;33812;46.480;6.834;2023-02-20T20:23:45;94291.16;;;22.58;34.01
48035;BME280;33812;46.480;6.834;2023-02-20T20:27:47;94283.72;;;22.55;34.26
48035;BME280;33812;46.480;6.834;2023-02-20T20:31:51;94290.44;;;22.54;34.25
48035;BME280;33812;46.480;6.834;2023-02-20T20:35:53;94289.25;;;22.55;34.49
48035;BME280;33812;46.480;6.834;2023-02-20T20:39:59;94285.69;;;22.54;34.45
48035;BME280;33812;46.480;6.834;2023-02-20T20:44:02;94291.59;;;22.56;34.20
48035;BME280;33812;46.480;6.834;2023-02-20T20:48:06;94292.38;;;22.57;34.71
48035;BME280;33812;46.480;6.834;2023-02-20T20:52:07;94293.13;;;22.57;34.60
48035;BME280;33812;46.480;6.834;2023-02-20T20:56:09;94298.25;;;22.59;34.41
48035;BME280;33812;46.480;6.834;2023-02-20T21:00:18;94276.94;;;22.56;34.66
48035;BME280;33812;46.480;6.834;2023-02-20T21:04:23;94284.72;;;22.61;34.82
48035;BME280;33812;46.480;6.834;2023-02-20T21:08:42;94287.09;;;22.63;34.72
48035;BME280;33812;46.480;6.834;2023-02-20T21:12:47;94275.75;;;22.57;34.89
48035;BME280;33812;46.480;6.834;2023-02-20T21:16:55;94278.78;;;22.63;35.06
48035;BME280;33812;46.480;6.834;2023-02-20T21:20:58;94270.13;;;22.61;35.11
48035;BME280;33812;46.480;6.834;2023-02-20T21:25:03;94278.03;;;22.62;35.11
48035;BME280;33812;46.480;6.834;2023-02-20T21:29:05;94274.88;;;22.60;34.93
48035;BME280;33812;46.480;6.834;2023-02-20T21:33:07;94278.88;;;22.59;34.76
48035;BME280;33812;46.480;6.834;2023-02-20T21:37:10;94273.31;;;22.59;34.43
48035;BME280;33812;46.480;6.834;2023-02-20T21:41:17;94263.97;;;22.53;33.28
48035;BME280;33812;46.480;6.834;2023-02-20T21:45:39;94270.22;;;22.57;33.41
48035;BME280;33812;46.480;6.834;2023-02-20T21:49:43;94267.44;;;22.57;33.74
48035;BME280;33812;46.480;6.834;2023-02-20T21:53:54;94268.97;;;22.58;33.73
48035;BME280;33812;46.480;6.834;2023-02-20T21:58:00;94265.50;;;22.54;34.05
48035;BME280;33812;46.480;6.834;2023-02-20T22:02:14;94255.22;;;22.54;33.93